createdAt,value
2018-06-22T00:01:46.540Z,102163.80
2018-06-22T00:04:15.129Z,102165.40
2018-06-22T00:06:43.725Z,102160.31
2018-06-22T00:09:12.298Z,102168.64
2018-06-22T00:11:40.819Z,102163.53
2018-06-22T00:14:09.339Z,102162.47
2018-06-22T00:16:38.118Z,102160.55
2018-06-22T00:19:06.552Z,102162.20
2018-06-22T00:21:35.210Z,102155.23
2018-06-22T00:24:03.683Z,102153.88
2018-06-22T00:26:32.082Z,102152.55
2018-06-22T00:29:00.736Z,102150.97
2018-06-22T00:31:29.265Z,102149.61
2018-06-22T00:33:57.635Z,102142.93
2018-06-22T00:36:26.260Z,102140.52
2018-06-22T00:38:55.413Z,102130.37
2018-06-22T00:41:24.082Z,102143.98
2018-06-22T00:43:52.865Z,102138.38
2018-06-22T00:46:21.479Z,102126.59
2018-06-22T00:48:50.157Z,102129.81
2018-06-22T00:51:18.796Z,102119.11
2018-06-22T00:54:04.403Z,102120.45
2018-06-22T00:56:32.888Z,102113.50
2018-06-22T00:59:01.526Z,102117.52
2018-06-22T01:01:29.782Z,102129.83
2018-06-22T01:03:58.177Z,102113.77
2018-06-22T01:06:26.660Z,102116.95
2018-06-22T01:08:55.111Z,102110.27
2018-06-22T01:11:23.875Z,102116.43
2018-06-22T01:13:52.396Z,102112.67
2018-06-22T01:16:21.364Z,102111.08
2018-06-22T01:18:49.808Z,102103.33
2018-06-22T01:21:18.851Z,102108.15
2018-06-22T01:23:47.622Z,102112.94
2018-06-22T01:26:16.149Z,102117.50
2018-06-22T01:28:44.428Z,102114.81
2018-06-22T01:31:12.891Z,102131.95
2018-06-22T01:33:41.272Z,102133.27
2018-06-22T01:36:09.870Z,102127.38
2018-06-22T01:38:38.504Z,102129.81
2018-06-22T01:41:07.271Z,102127.66
2018-06-22T01:43:36.697Z,102123.12
2018-06-22T01:46:05.392Z,102127.16
2018-06-22T01:48:33.873Z,102123.64
2018-06-22T01:51:02.273Z,102119.39
2018-06-22T01:53:31.048Z,102123.41
2018-06-22T01:55:59.712Z,102120.19
2018-06-22T01:58:28.212Z,102120.98
2018-06-22T02:00:56.830Z,102114.04
2018-06-22T02:03:25.274Z,102111.35
2018-06-22T02:05:54.002Z,102107.08
2018-06-22T02:08:22.532Z,102109.73
2018-06-22T02:10:50.976Z,102113.20
2018-06-22T02:13:19.665Z,102109.48
2018-06-22T02:15:47.992Z,102111.88
2018-06-22T02:18:16.397Z,102114.55
2018-06-22T02:20:45.255Z,102109.73
2018-06-22T02:23:13.811Z,102098.48
2018-06-22T02:25:42.031Z,102102.78
2018-06-22T02:28:10.667Z,102103.86
2018-06-22T02:30:39.119Z,102103.32
2018-06-22T02:33:07.726Z,102091.81
2018-06-22T02:35:36.115Z,102094.48
2018-06-22T02:38:05.252Z,102098.48
2018-06-22T02:40:33.825Z,102093.42
2018-06-22T02:43:02.296Z,102091.02
2018-06-22T02:45:30.838Z,102098.24
2018-06-22T02:47:59.526Z,102093.97
2018-06-22T02:50:27.856Z,102089.67
2018-06-22T02:52:56.351Z,102086.75
2018-06-22T02:55:24.960Z,102092.35
2018-06-22T02:57:53.465Z,102088.61
2018-06-22T03:00:22.022Z,102087.27
2018-06-22T03:02:50.667Z,102092.08
2018-06-22T03:05:19.178Z,102092.37
2018-06-22T03:07:47.598Z,102092.37
2018-06-22T03:10:15.920Z,102101.45
2018-06-22T03:12:44.489Z,102092.09
2018-06-22T03:15:13.069Z,102096.38
2018-06-22T03:17:41.573Z,102095.56
2018-06-22T03:20:10.186Z,102093.95
2018-06-22T03:22:38.636Z,102094.77
2018-06-22T03:25:07.069Z,102092.89
2018-06-22T03:27:35.299Z,102099.56
2018-06-22T03:30:03.949Z,102095.30
2018-06-22T03:32:32.432Z,102100.91
2018-06-22T03:35:01.013Z,102094.47
2018-06-22T03:37:29.929Z,102090.20
2018-06-22T03:39:58.443Z,102096.90
2018-06-22T03:42:27.046Z,102097.98
2018-06-22T03:44:55.588Z,102086.71
2018-06-22T03:47:24.101Z,102084.85
2018-06-22T03:49:52.520Z,102086.71
2018-06-22T03:52:20.984Z,102091.23
2018-06-22T03:54:49.327Z,102081.08
2018-06-22T03:57:17.851Z,102085.36
2018-06-22T03:59:46.195Z,102086.95
2018-06-22T04:02:14.766Z,102089.37
2018-06-22T04:04:43.132Z,102081.83
2018-06-22T04:07:11.599Z,102089.59
2018-06-22T04:09:40.325Z,102083.70
2018-06-22T04:12:08.832Z,102088.53
2018-06-22T04:14:37.420Z,102080.51
2018-06-22T04:17:05.856Z,102079.95
2018-06-22T04:19:34.292Z,102075.94
2018-06-22T04:22:02.665Z,102072.20
2018-06-22T04:24:31.145Z,102065.21
2018-06-22T04:26:59.527Z,102068.16
2018-06-22T04:29:27.928Z,102067.66
2018-06-22T04:31:56.282Z,102060.94
2018-06-22T04:34:24.918Z,102065.23
2018-06-22T04:36:53.640Z,102073.52
2018-06-22T04:39:22.145Z,102072.44
2018-06-22T04:41:50.614Z,102074.33
2018-06-22T04:44:18.955Z,102077.25
2018-06-22T04:46:47.451Z,102068.10
2018-06-22T04:49:16.022Z,102065.94
2018-06-22T04:51:44.780Z,102076.09
2018-06-22T04:54:13.306Z,102074.77
2018-06-22T04:56:41.778Z,102074.25
2018-06-22T04:59:10.308Z,102076.14
2018-06-22T05:01:38.944Z,102071.03
2018-06-22T05:04:07.500Z,102075.92
2018-06-22T05:06:36.293Z,102085.58
2018-06-22T05:09:07.503Z,102086.64
2018-06-22T05:11:36.021Z,102092.52
2018-06-22T05:14:04.597Z,102102.44
2018-06-22T05:16:33.151Z,102090.13
2018-06-22T05:19:02.080Z,102096.27
2018-06-22T05:21:30.621Z,102089.80
2018-06-22T05:23:58.865Z,102090.05
2018-06-22T05:26:27.816Z,102096.22
2018-06-22T05:28:56.221Z,102092.53
2018-06-22T05:31:25.286Z,102087.92
2018-06-22T05:33:54.128Z,102094.14
2018-06-22T05:36:22.770Z,102092.22
2018-06-22T05:38:51.290Z,102093.03
2018-06-22T05:41:19.784Z,102105.60
2018-06-22T05:43:50.352Z,102109.91
2018-06-22T05:46:33.463Z,102108.86
2018-06-22T05:49:03.194Z,102124.68
2018-06-22T05:51:31.681Z,102126.79
2018-06-22T05:54:00.378Z,102116.05
2018-06-22T05:56:28.995Z,102104.73
2018-06-22T05:59:00.227Z,102099.09
2018-06-22T06:01:29.221Z,102113.78
2018-06-22T06:03:57.663Z,102114.01
2018-06-22T06:06:29.036Z,102119.40
2018-06-22T06:08:57.720Z,102113.78
2018-06-22T06:11:26.145Z,102107.41
2018-06-22T06:13:54.682Z,102112.22
2018-06-22T06:16:23.184Z,102114.06
2018-06-22T06:18:51.787Z,102109.73
2018-06-22T06:21:20.410Z,102114.31
2018-06-22T06:23:48.805Z,102117.87
2018-06-22T06:26:17.334Z,102112.00
2018-06-22T06:28:46.131Z,102121.11
2018-06-22T06:31:14.665Z,102118.61
2018-06-22T06:33:43.478Z,102122.94
2018-06-22T06:36:11.875Z,102125.06
2018-06-22T06:38:40.293Z,102129.36
2018-06-22T06:41:09.120Z,102128.30
2018-06-22T06:43:37.899Z,102132.83
2018-06-22T06:46:06.424Z,102129.88
2018-06-22T06:48:35.077Z,102128.20
2018-06-22T06:51:03.663Z,102135.94
2018-06-22T06:53:32.093Z,102138.87
2018-06-22T06:56:00.843Z,102143.65
2018-06-22T06:58:29.778Z,102142.31
2018-06-22T07:00:58.124Z,102150.08
2018-06-22T07:03:26.619Z,102149.20
2018-06-22T07:05:55.265Z,102150.89
2018-06-22T07:08:24.194Z,102156.50
2018-06-22T07:10:52.864Z,102161.97
2018-06-22T07:13:21.292Z,102163.80
2018-06-22T07:15:49.721Z,102155.25
2018-06-22T07:18:18.405Z,102169.91
2018-06-22T07:20:47.216Z,102162.70
2018-06-22T07:23:16.095Z,102172.87
2018-06-22T07:25:45.027Z,102167.08
2018-06-22T07:28:13.332Z,102182.70
2018-06-22T07:30:42.092Z,102180.13
2018-06-22T07:33:10.549Z,102182.50
2018-06-22T07:35:38.932Z,102181.42
2018-06-22T07:38:07.630Z,102180.83
2018-06-22T07:40:36.216Z,102186.21
2018-06-22T07:43:04.900Z,102184.32
2018-06-22T07:45:33.177Z,102190.98
2018-06-22T07:48:01.525Z,102184.81
2018-06-22T07:50:29.890Z,102194.24
2018-06-22T07:52:58.572Z,102206.61
2018-06-22T07:55:27.122Z,102207.11
2018-06-22T07:57:55.849Z,102214.90
2018-06-22T08:00:24.295Z,102209.52
2018-06-22T08:02:53.046Z,102217.03
2018-06-22T08:05:21.438Z,102223.20
2018-06-22T08:07:50.023Z,102220.20
2018-06-22T08:10:18.559Z,102235.48
2018-06-22T08:12:47.878Z,102219.17
2018-06-22T08:15:16.873Z,102227.26
2018-06-22T08:17:50.672Z,102224.24
2018-06-22T08:20:28.404Z,102225.16
2018-06-22T08:22:57.091Z,102228.86
2018-06-22T08:25:25.680Z,102222.34
2018-06-22T08:27:55.743Z,102225.59
2018-06-22T08:30:29.953Z,102237.83
2018-06-22T08:32:59.311Z,102245.41
2018-06-22T08:35:29.389Z,102241.54
2018-06-22T08:37:59.186Z,102247.65
2018-06-22T08:40:31.640Z,102253.05
2018-06-22T08:43:03.950Z,102255.03
2018-06-22T08:45:33.681Z,102263.77
2018-06-22T08:48:03.120Z,102265.73
2018-06-22T08:50:36.824Z,102269.45
2018-06-22T08:53:06.662Z,102272.44
2018-06-22T08:55:35.236Z,102273.76
2018-06-22T08:58:07.859Z,102271.84
2018-06-22T09:00:37.921Z,102280.63
2018-06-22T09:03:10.434Z,102285.42
2018-06-22T09:05:40.905Z,102279.05
2018-06-22T09:08:09.698Z,102281.20
2018-06-22T09:10:38.306Z,102282.77
2018-06-22T09:13:06.956Z,102291.80
2018-06-22T09:15:37.777Z,102286.28
2018-06-22T09:18:08.564Z,102282.88
2018-06-22T09:20:37.906Z,102282.95
2018-06-22T09:23:08.745Z,102278.06
2018-06-22T09:25:40.074Z,102270.50
2018-06-22T09:28:09.976Z,102270.80
2018-06-22T09:30:38.686Z,102273.28
2018-06-22T09:33:07.457Z,102269.34
2018-06-22T09:35:43.985Z,102273.44
2018-06-22T09:38:13.864Z,102270.64
2018-06-22T09:40:42.908Z,102271.78
2018-06-22T09:43:13.788Z,102274.61
2018-06-22T09:45:42.760Z,102279.06
2018-06-22T09:48:14.371Z,102278.61
2018-06-22T09:50:46.617Z,102268.19
2018-06-22T09:53:18.026Z,102266.39
2018-06-22T09:55:46.532Z,102265.85
2018-06-22T09:58:20.330Z,102257.32
2018-06-22T10:00:52.511Z,102269.22
2018-06-22T10:03:22.962Z,102266.49
2018-06-22T10:05:52.100Z,102272.42
2018-06-22T10:08:21.066Z,102272.74
2018-06-22T10:10:53.817Z,102277.02
2018-06-22T10:13:23.850Z,102282.72
2018-06-22T10:16:05.805Z,102290.63
2018-06-22T10:18:36.729Z,102289.97
2018-06-22T10:21:08.467Z,102286.06
2018-06-22T10:23:38.674Z,102282.86
2018-06-22T10:26:09.931Z,102288.53
2018-06-22T10:28:39.710Z,102287.25
2018-06-22T10:31:11.232Z,102288.84
2018-06-22T10:33:41.365Z,102282.17
2018-06-22T10:36:11.297Z,102275.09
2018-06-22T10:38:39.902Z,102281.63
2018-06-22T10:41:08.774Z,102283.01
2018-06-22T10:43:37.473Z,102290.84
2018-06-22T10:46:10.117Z,102291.66
2018-06-22T10:48:38.768Z,102292.34
2018-06-22T10:51:07.558Z,102289.06
2018-06-22T10:53:36.167Z,102294.69
2018-06-22T10:56:11.941Z,102292.71
2018-06-22T10:58:41.324Z,102304.00
2018-06-22T11:01:12.259Z,102303.44
2018-06-22T11:03:41.705Z,102304.17
2018-06-22T11:06:11.118Z,102305.63
2018-06-22T11:08:41.336Z,102293.39
2018-06-22T11:11:09.815Z,102300.81
2018-06-22T11:13:38.669Z,102303.51
2018-06-22T11:16:07.226Z,102299.84
2018-06-22T11:18:35.955Z,102293.34
2018-06-22T11:21:05.120Z,102282.52
2018-06-22T11:23:33.455Z,102286.90
2018-06-22T11:26:02.158Z,102294.02
2018-06-22T11:28:32.468Z,102290.58
2018-06-22T11:31:01.970Z,102285.41
2018-06-22T11:33:30.545Z,102288.17
2018-06-22T11:35:59.672Z,102287.58
2018-06-22T11:38:28.446Z,102293.09
2018-06-22T11:40:57.259Z,102284.84
2018-06-22T11:43:25.634Z,102292.03
2018-06-22T11:45:55.141Z,102290.61
2018-06-22T11:48:23.802Z,102289.81
2018-06-22T11:50:52.275Z,102286.96
2018-06-22T11:53:21.040Z,102288.88
2018-06-22T11:55:49.854Z,102304.90
2018-06-22T11:58:18.716Z,102305.57
2018-06-22T12:00:47.568Z,102309.56
2018-06-22T12:03:16.737Z,102300.95
2018-06-22T12:05:45.676Z,102300.41
2018-06-22T12:08:14.617Z,102300.37
2018-06-22T12:10:43.267Z,102298.48
2018-06-22T12:13:11.808Z,102282.59
2018-06-22T12:15:40.231Z,102288.29
2018-06-22T12:18:08.866Z,102281.13
2018-06-22T12:20:37.557Z,102274.66
2018-06-22T12:23:06.396Z,102273.13
2018-06-22T12:25:35.216Z,102278.64
2018-06-22T12:28:03.764Z,102282.06
2018-06-22T12:30:33.994Z,102286.63
2018-06-22T12:33:02.659Z,102289.23
2018-06-22T12:35:31.405Z,102289.44
2018-06-22T12:37:59.966Z,102282.69
2018-06-22T12:40:28.528Z,102284.91
2018-06-22T12:42:57.147Z,102279.12
2018-06-22T12:45:26.180Z,102272.31
2018-06-22T12:47:55.469Z,102271.94
2018-06-22T12:50:24.455Z,102280.69
2018-06-22T12:52:52.904Z,102269.17
2018-06-22T12:55:21.368Z,102278.23
2018-06-22T12:57:50.101Z,102277.16
2018-06-22T13:00:18.654Z,102271.03
2018-06-22T13:02:47.278Z,102277.55
2018-06-22T13:05:15.951Z,102278.42
2018-06-22T13:07:44.412Z,102261.86
2018-06-22T13:10:13.001Z,102270.56
2018-06-22T13:12:41.526Z,102267.34
2018-06-22T13:15:10.092Z,102263.42
2018-06-22T13:17:38.666Z,102264.95
2018-06-22T13:20:07.336Z,102256.11
2018-06-22T13:22:36.157Z,102259.75
2018-06-22T13:25:04.955Z,102251.58
2018-06-22T13:27:33.637Z,102248.61
2018-06-22T13:30:02.165Z,102257.37
2018-06-22T13:32:30.796Z,102253.25
2018-06-22T13:34:59.346Z,102246.89
2018-06-22T13:37:27.828Z,102253.87
2018-06-22T13:39:56.894Z,102247.64
2018-06-22T13:42:25.720Z,102239.28
2018-06-22T13:44:55.424Z,102247.86
2018-06-22T13:47:24.498Z,102255.23
2018-06-22T13:49:53.557Z,102246.45
2018-06-22T13:52:22.250Z,102243.53
2018-06-22T13:54:50.803Z,102259.80
2018-06-22T13:57:19.554Z,102252.12
2018-06-22T13:59:48.202Z,102258.98
2018-06-22T14:02:16.763Z,102262.27
2018-06-22T14:04:51.162Z,102261.40
2018-06-22T14:07:20.017Z,102256.38
2018-06-22T14:09:48.702Z,102259.64
2018-06-22T14:12:18.112Z,102260.05
2018-06-22T14:14:46.746Z,102262.41
2018-06-22T14:17:15.297Z,102267.39
2018-06-22T14:19:44.014Z,102273.38
2018-06-22T14:22:12.592Z,102261.88
2018-06-22T14:24:41.323Z,102264.32
2018-06-22T14:27:09.745Z,102267.84
2018-06-22T14:29:38.422Z,102271.05
2018-06-22T14:32:07.251Z,102279.52
2018-06-22T14:34:35.982Z,102278.09
2018-06-22T14:37:05.028Z,102275.81
2018-06-22T14:39:33.505Z,102271.56
2018-06-22T14:42:02.322Z,102278.52
2018-06-22T14:44:30.898Z,102282.73
2018-06-22T14:46:59.376Z,102287.57
2018-06-22T14:49:27.842Z,102291.55
2018-06-22T14:52:01.456Z,102286.19
2018-06-22T14:54:35.892Z,102285.73
2018-06-22T14:57:10.015Z,102284.76
2018-06-22T14:59:44.311Z,102290.67
2018-06-22T15:02:18.575Z,102287.41
2018-06-22T15:04:52.812Z,102280.21
2018-06-22T15:07:26.974Z,102279.70
2018-06-22T15:09:55.582Z,102282.02
2018-06-22T15:12:24.214Z,102282.82
2018-06-22T15:14:52.887Z,102272.62
2018-06-22T15:17:22.263Z,102278.26
2018-06-22T15:19:50.789Z,102275.42
2018-06-22T15:22:19.455Z,102274.80
2018-06-22T15:24:48.143Z,102287.40
2018-06-22T15:27:16.825Z,102275.53
2018-06-22T15:29:45.445Z,102290.00
2018-06-22T15:32:14.194Z,102297.27
2018-06-22T15:34:48.626Z,102293.13
2018-06-22T15:37:22.788Z,102295.76
2018-06-22T15:40:55.874Z,102305.08
2018-06-22T15:43:29.981Z,102303.95
2018-06-22T15:46:04.327Z,102305.77
2018-06-22T15:48:45.735Z,102299.66
2018-06-22T15:51:20.006Z,102305.13
2018-06-22T15:53:54.187Z,102298.09
2018-06-22T15:56:23.651Z,102304.62
2018-06-22T15:58:52.455Z,102299.12
2018-06-22T16:01:21.273Z,102299.86
2018-06-22T16:03:55.541Z,102300.27
2018-06-22T16:06:24.435Z,102305.38
2018-06-22T16:08:53.328Z,102305.01
2018-06-22T16:11:26.120Z,102305.39
2018-06-22T16:14:00.561Z,102302.13
2018-06-22T16:16:35.305Z,102308.83
2018-06-22T16:19:09.422Z,102309.50
2018-06-22T16:21:43.419Z,102307.22
2018-06-22T16:24:17.607Z,102315.22
2018-06-22T16:26:51.917Z,102308.27
2018-06-22T16:29:20.373Z,102313.06
2018-06-22T16:31:48.998Z,102304.91
2018-06-22T16:34:17.437Z,102308.30
2018-06-22T16:36:47.640Z,102322.00
2018-06-22T16:39:16.329Z,102323.99
2018-06-22T16:41:44.904Z,102318.25
2018-06-22T16:44:13.705Z,102318.92
2018-06-22T16:46:42.353Z,102331.28
2018-06-22T16:49:11.204Z,102338.20
2018-06-22T16:51:41.954Z,102328.91
2018-06-22T16:54:10.339Z,102327.67
2018-06-22T16:56:38.964Z,102332.76
2018-06-22T16:59:07.614Z,102343.42
2018-06-22T17:01:35.923Z,102344.72
2018-06-22T17:04:04.640Z,102345.83
2018-06-22T17:06:38.960Z,102350.05
2018-06-22T17:09:14.194Z,102352.89
2018-06-22T17:11:48.387Z,102351.70
2018-06-22T17:14:22.712Z,102356.80
2018-06-22T17:16:56.905Z,102348.10
2018-06-22T17:19:25.547Z,102350.11
2018-06-22T17:21:54.123Z,102344.99
2018-06-22T17:24:22.840Z,102341.30
2018-06-22T17:26:51.166Z,102345.41
2018-06-22T17:29:19.571Z,102342.48
2018-06-22T17:31:48.452Z,102346.99
2018-06-22T17:34:19.565Z,102357.53
2018-06-22T17:36:48.362Z,102362.02
2018-06-22T17:39:17.120Z,102358.61
2018-06-22T17:41:45.987Z,102361.86
2018-06-22T17:44:14.326Z,102359.09
2018-06-22T17:46:42.903Z,102363.91
2018-06-22T17:49:11.499Z,102371.06
2018-06-22T17:51:40.956Z,102371.05
2018-06-22T17:54:09.761Z,102369.88
2018-06-22T17:56:38.589Z,102378.39
2018-06-22T17:59:12.694Z,102385.60
2018-06-22T18:02:45.863Z,102379.45
2018-06-22T18:05:20.081Z,102386.36
2018-06-22T18:07:49.205Z,102379.70
2018-06-22T18:10:23.396Z,102385.06
2018-06-22T18:12:54.796Z,102380.08
2018-06-22T18:15:23.439Z,102381.91
2018-06-22T18:17:52.062Z,102378.83
2018-06-22T18:20:20.859Z,102382.20
2018-06-22T18:22:49.538Z,102382.90
2018-06-22T18:25:18.322Z,102388.54
2018-06-22T18:27:47.004Z,102388.41
2018-06-22T18:30:16.227Z,102393.61
2018-06-22T18:32:44.788Z,102398.82
2018-06-22T18:35:14.693Z,102396.66
2018-06-22T18:37:43.470Z,102397.41
2018-06-22T18:40:12.334Z,102395.84
2018-06-22T18:42:40.865Z,102396.17
2018-06-22T18:45:11.416Z,102399.64
2018-06-22T18:47:40.665Z,102396.42
2018-06-22T18:50:09.508Z,102400.78
2018-06-22T18:52:43.486Z,102392.28
2018-06-22T18:57:45.764Z,102399.83
2018-06-22T19:00:20.099Z,102403.94
2018-06-22T19:02:54.584Z,102399.06
2018-06-22T19:05:23.457Z,102402.60
2018-06-22T19:07:52.029Z,102403.22
2018-06-22T19:10:20.608Z,102399.14
2018-06-22T19:12:49.113Z,102402.20
2018-06-22T19:15:22.780Z,102398.41
2018-06-22T19:17:51.457Z,102405.50
2018-06-22T19:20:19.955Z,102402.10
2018-06-22T19:22:48.329Z,102409.03
2018-06-22T19:25:16.857Z,102418.16
2018-06-22T19:27:45.419Z,102421.70
2018-06-22T19:30:14.292Z,102423.60
2018-06-22T19:32:43.455Z,102427.60
2018-06-22T19:35:13.548Z,102423.88
2018-06-22T19:37:43.639Z,102429.01
2018-06-22T19:40:12.493Z,102429.31
2018-06-22T19:42:41.218Z,102440.82
2018-06-22T19:45:15.233Z,102438.70
2018-06-22T19:47:49.648Z,102440.40
2018-06-22T19:51:26.690Z,102446.53
2018-06-22T19:53:58.255Z,102450.30
2018-06-22T19:56:27.015Z,102448.43
2018-06-22T19:58:55.767Z,102451.16
2018-06-22T20:01:24.369Z,102452.52
2018-06-22T20:03:53.003Z,102454.38
2018-06-22T20:06:21.769Z,102451.23
2018-06-22T20:08:50.357Z,102460.68
2018-06-22T20:11:18.980Z,102456.61
2018-06-22T20:13:47.619Z,102461.17
2018-06-22T20:16:16.394Z,102459.55
2018-06-22T20:18:45.143Z,102460.64
2018-06-22T20:21:13.690Z,102463.30
2018-06-22T20:23:42.185Z,102458.47
2018-06-22T20:26:10.987Z,102454.48
2018-06-22T20:28:39.581Z,102458.47
2018-06-22T20:31:08.353Z,102462.21
2018-06-22T20:33:36.890Z,102462.50
2018-06-22T20:36:11.279Z,102460.61
2018-06-22T20:38:45.507Z,102464.91
2018-06-22T20:41:19.356Z,102467.88
2018-06-22T20:43:53.485Z,102466.55
2018-06-22T20:46:27.620Z,102472.98
2018-06-22T20:51:09.044Z,102467.33
2018-06-22T20:53:37.373Z,102479.47
2018-06-22T20:56:05.875Z,102482.98
2018-06-22T20:58:34.768Z,102490.75
2018-06-22T21:01:03.512Z,102485.38
2018-06-22T21:03:32.040Z,102489.16
2018-06-22T21:06:00.922Z,102499.94
2018-06-22T21:08:29.473Z,102496.15
2018-06-22T21:10:58.340Z,102495.09
2018-06-22T21:13:26.979Z,102497.22
2018-06-22T21:15:55.732Z,102496.66
2018-06-22T21:18:24.293Z,102506.86
2018-06-22T21:20:58.265Z,102502.84
2018-06-22T21:23:26.906Z,102509.55
2018-06-22T21:25:55.525Z,102501.52
2018-06-22T21:29:33.759Z,102512.79
2018-06-22T21:32:07.941Z,102511.97
2018-06-22T21:34:40.981Z,102504.17
2018-06-22T21:37:15.301Z,102504.72
2018-06-22T21:39:43.532Z,102510.89
2018-06-22T21:42:12.083Z,102512.23
2018-06-22T21:44:40.794Z,102509.28
2018-06-22T21:47:09.515Z,102511.17
2018-06-22T21:49:38.194Z,102510.91
2018-06-22T21:52:07.015Z,102511.44
2018-06-22T21:54:35.670Z,102516.25
2018-06-22T21:57:04.440Z,102520.30
2018-06-22T21:59:32.950Z,102515.20
2018-06-22T22:02:01.467Z,102517.34
2018-06-22T22:04:42.503Z,102518.68
2018-06-22T22:07:12.381Z,102522.98
2018-06-22T22:09:43.022Z,102524.30
2018-06-22T22:12:13.012Z,102521.89
2018-06-22T22:14:42.928Z,102520.56
2018-06-22T22:17:12.077Z,102520.52
2018-06-22T22:19:41.834Z,102522.96
2018-06-22T22:22:11.788Z,102522.16
2018-06-22T22:24:41.380Z,102517.87
2018-06-22T22:27:11.438Z,102514.10
2018-06-22T22:29:41.311Z,102521.91
2018-06-22T22:32:11.287Z,102523.23
2018-06-22T22:34:41.618Z,102518.95
2018-06-22T22:37:11.528Z,102510.35
2018-06-22T22:39:41.989Z,102516.53
2018-06-22T22:42:13.265Z,102521.91
2018-06-22T22:44:44.136Z,102516.00
2018-06-22T22:47:14.081Z,102513.03
2018-06-22T22:49:44.430Z,102507.41
2018-06-22T22:52:14.965Z,102506.61
2018-06-22T22:54:44.861Z,102510.89
2018-06-22T22:57:14.981Z,102511.44
2018-06-22T22:59:44.571Z,102514.91
2018-06-22T23:02:14.180Z,102513.84
2018-06-22T23:04:43.800Z,102514.66
2018-06-22T23:07:12.611Z,102510.36
2018-06-22T23:09:41.622Z,102502.86
2018-06-22T23:12:10.581Z,102507.41
2018-06-22T23:14:39.348Z,102506.86
2018-06-22T23:17:10.300Z,102501.25
2018-06-22T23:19:40.260Z,102497.77
2018-06-22T23:22:10.199Z,102497.22
2018-06-22T23:24:42.720Z,102501.77
2018-06-22T23:27:11.512Z,102502.58
2018-06-22T23:29:40.900Z,102509.54
2018-06-22T23:32:09.792Z,102500.69
2018-06-22T23:34:39.093Z,102501.73
2018-06-22T23:37:17.191Z,102500.13
2018-06-22T23:40:08.972Z,102497.20
2018-06-22T23:42:41.102Z,102495.59
2018-06-22T23:45:10.301Z,102497.47
2018-06-22T23:48:04.443Z,102494.27
2018-06-22T23:50:33.564Z,102502.28
2018-06-22T23:53:02.481Z,102503.09
2018-06-22T23:55:32.724Z,102493.43
2018-06-22T23:58:01.586Z,102496.38
